Portada
METAR-TAF:

METAR-TAF

Aeropuertos :

Prairie du Chien Municipal Airport

Prairie du Chien, Wisconsin, Estados Unidos

latitud: 43-01-19N, longitud: 091-07-29W, altitud: 201 m

Observación

El informe se hizo hace 12 minutos, a las 06:35 UTC
Viento calma
Temperatura 9°C
Humedad 81%
Presión 1025 hPa
Visibilidad: 16.1 km
Cielo despejado

METAR: KPDC 310635Z AUTO 00000KT 10SM CLR 09/06 A3028 RMK AO2 T00870060

Hora: 01:47 (06:47 UTC)


TAF: falta

Observaciones y pronósticos meteorológicos de más de 4000 aeropuertos (mensajes METAR y TAF).

Los puntos amarillos y rojos representan las estaciones disponibles.

Ponga el ratón en el punto deseado para ver el nombre de la estación.

Haga clic para ver las observaciones y los pronósticos meteorológicos.

Para cambiar el mapa : haga clic en los botones verdes con una cruz de color negro para hacer un zoom, en el botón verde con un guión para alejar o en las flechas verdes para mapas adyacentes.


METAR-TAF: